createdAt,value
2022-11-24T06:16:13.023Z,19.18
2022-11-24T06:19:07.899Z,16.36
2022-11-24T06:21:55.894Z,13.31
2022-11-24T06:24:30.127Z,11.11
2022-11-24T06:27:17.952Z,9.29
2022-11-24T06:29:53.104Z,7.94
2022-11-24T06:32:43.739Z,6.80
2022-11-24T06:35:29.947Z,5.90
2022-11-24T06:38:24.949Z,5.16
2022-11-24T06:41:14.948Z,4.56
2022-11-24T06:43:50.360Z,4.09
2022-11-24T06:46:38.936Z,3.69
2022-11-24T06:49:14.291Z,3.37
2022-11-24T06:52:01.930Z,3.12
2022-11-24T06:54:37.297Z,2.99
2022-11-24T06:57:33.500Z,2.87
2022-11-24T07:00:15.067Z,2.78
2022-11-24T07:03:03.975Z,2.72
2022-11-24T07:05:39.501Z,2.65
2022-11-24T07:08:26.927Z,2.58
2022-11-24T07:11:23.951Z,2.51
2022-11-24T07:14:04.928Z,2.42
2022-11-24T07:16:46.097Z,2.34
2022-11-24T07:19:26.891Z,2.26
2022-11-24T07:22:08.191Z,2.19
2022-11-24T07:24:48.935Z,2.13
2022-11-24T07:27:36.876Z,2.07
2022-11-24T07:30:11.621Z,2.03
2022-11-24T07:33:00.013Z,2.05
2022-11-24T07:35:34.369Z,2.10
2022-11-24T07:38:21.911Z,2.13
2022-11-24T07:41:03.362Z,2.15
2022-11-24T07:43:51.953Z,2.16
2022-11-24T07:46:30.395Z,2.18
2022-11-24T07:49:18.936Z,2.19
2022-11-24T07:51:53.359Z,2.24
2022-11-24T07:54:40.937Z,2.32
2022-11-24T07:57:21.926Z,2.38
2022-11-24T08:00:03.212Z,2.44
2022-11-24T08:02:44.961Z,2.46
2022-11-24T08:05:27.066Z,2.53
2022-11-24T08:08:07.943Z,2.60
2022-11-24T08:10:55.876Z,2.62
2022-11-24T08:13:52.519Z,2.62
2022-11-24T08:16:39.950Z,2.59
2022-11-24T08:19:22.050Z,2.57
2022-11-24T08:22:16.936Z,2.59
2022-11-24T08:25:12.037Z,2.63
2022-11-24T08:28:00.228Z,2.66
2022-11-24T08:30:43.360Z,2.68
2022-11-24T08:33:30.933Z,2.65
2022-11-24T08:36:20.931Z,2.64
2022-11-24T08:39:08.900Z,2.67
2022-11-24T08:41:49.921Z,2.64
2022-11-24T08:44:44.909Z,2.60
2022-11-24T08:47:32.936Z,2.57
2022-11-24T08:50:08.104Z,2.60
2022-11-24T08:52:55.939Z,2.73
2022-11-24T08:55:37.935Z,3.64
2022-11-24T08:58:19.396Z,5.26
2022-11-24T09:01:06.989Z,6.86
2022-11-24T09:03:49.761Z,8.24
2022-11-24T09:06:40.907Z,9.49
2022-11-24T09:09:15.415Z,10.57
2022-11-24T09:12:02.900Z,11.55
2022-11-24T09:14:50.911Z,12.28
2022-11-24T09:17:39.899Z,13.02
2022-11-24T09:20:21.199Z,13.62
2022-11-24T09:23:08.912Z,14.23
2022-11-24T09:25:44.079Z,14.74
2022-11-24T09:28:31.906Z,15.21
2022-11-24T09:31:13.096Z,15.61
2022-11-24T09:34:01.909Z,15.98
2022-11-24T09:36:37.224Z,16.30
2022-11-24T09:39:25.015Z,16.65
2022-11-24T09:42:12.133Z,16.91
2022-11-24T09:46:03.328Z,17.16
2022-11-24T09:48:52.905Z,17.41
2022-11-24T09:51:29.685Z,17.56
2022-11-24T09:54:30.953Z,17.72
2022-11-24T09:57:07.315Z,17.86
2022-11-24T09:59:55.915Z,17.96
2022-11-24T10:02:30.386Z,18.03
2022-11-24T10:05:18.939Z,16.71
2022-11-24T10:08:08.906Z,14.57
2022-11-24T10:11:03.047Z,12.02
2022-11-24T10:13:43.927Z,10.17
2022-11-24T10:17:00.906Z,8.79
2022-11-24T10:20:03.928Z,7.56
2022-11-24T10:23:10.966Z,7.13
2022-11-24T10:26:10.902Z,6.55
2022-11-24T10:29:07.889Z,5.98
2022-11-24T10:31:59.905Z,5.52
2022-11-24T10:34:42.158Z,5.20
2022-11-24T10:37:40.911Z,4.89
2022-11-24T10:40:55.463Z,4.63
2022-11-24T10:43:33.882Z,4.41
2022-11-24T10:46:39.145Z,4.23
2022-11-24T10:49:40.019Z,4.10
2022-11-24T10:52:22.041Z,3.96
2022-11-24T10:55:11.887Z,3.89
2022-11-24T10:57:47.108Z,3.80
2022-11-24T11:00:39.892Z,3.69
2022-11-24T11:03:32.913Z,3.57
2022-11-24T11:06:31.875Z,3.48
2022-11-24T11:09:13.099Z,3.44
2022-11-24T11:11:59.143Z,3.44
2022-11-24T11:15:04.960Z,3.36
2022-11-24T11:17:52.916Z,3.28
2022-11-24T11:20:41.060Z,3.20
2022-11-24T11:23:37.902Z,3.16
2022-11-24T11:26:38.048Z,3.12
2022-11-24T11:35:39.904Z,5.76
2022-11-24T11:38:21.036Z,5.45
2022-11-24T11:41:01.891Z,5.01
2022-11-24T11:43:46.203Z,4.54
2022-11-24T11:46:27.958Z,4.11
2022-11-24T11:49:08.862Z,3.80
2022-11-24T11:52:12.720Z,3.58
2022-11-24T11:55:08.608Z,3.37
2022-11-24T11:58:15.221Z,3.21
2022-11-24T12:01:32.232Z,3.11
2022-11-24T12:04:44.910Z,3.08
2022-11-24T12:07:43.837Z,3.03
2022-11-24T12:10:38.881Z,2.93
2022-11-24T12:13:28.593Z,2.82
2022-11-24T12:16:45.907Z,2.69
2022-11-24T12:19:29.248Z,2.59
2022-11-24T12:22:44.881Z,2.58
2022-11-24T12:25:26.843Z,2.61
2022-11-24T12:28:47.889Z,2.61
2022-11-24T12:31:36.081Z,2.77
2022-11-24T12:34:35.905Z,2.94
2022-11-24T12:37:39.877Z,4.64
2022-11-24T12:40:34.861Z,8.07
2022-11-24T12:43:33.871Z,10.25
2022-11-24T12:46:32.271Z,12.11
2022-11-24T12:49:46.867Z,13.34
2022-11-24T12:52:32.043Z,14.65
2022-11-24T12:55:20.884Z,15.39
2022-11-24T12:58:26.873Z,15.93
2022-11-24T13:01:16.641Z,15.91
2022-11-24T13:04:13.879Z,15.32
2022-11-24T13:07:01.834Z,14.75
2022-11-24T13:09:44.023Z,14.63
2022-11-24T13:12:24.871Z,14.75
2022-11-24T13:15:45.793Z,14.92
2022-11-24T13:19:02.969Z,14.00
2022-11-24T13:21:53.024Z,14.11
2022-11-24T13:24:39.103Z,14.54
2022-11-24T13:27:20.037Z,14.72
2022-11-24T13:30:00.876Z,14.87
2022-11-24T13:32:48.969Z,15.32
2022-11-24T13:35:23.490Z,15.78
2022-11-24T13:38:11.937Z,15.77
2022-11-24T13:41:12.958Z,15.94
2022-11-24T13:44:28.978Z,15.94
2022-11-24T13:47:11.969Z,15.48
2022-11-24T13:49:59.862Z,14.87
2022-11-24T13:52:40.623Z,14.35
2022-11-24T13:55:34.881Z,13.84
2022-11-24T13:58:09.249Z,13.54
2022-11-24T14:01:17.164Z,13.10
2022-11-24T14:04:32.296Z,12.77
2022-11-24T14:07:20.186Z,12.78
2022-11-24T14:10:01.874Z,12.81
2022-11-24T14:12:44.039Z,13.25
2022-11-24T14:15:31.862Z,14.21
2022-11-24T14:18:29.444Z,14.94
2022-11-24T17:10:14.375Z,18.35
2022-11-24T17:13:06.856Z,14.49
2022-11-24T17:15:48.381Z,11.47
2022-11-24T17:18:38.764Z,8.72
2022-11-24T17:21:21.848Z,6.98
2022-11-24T17:24:24.967Z,5.50
2022-11-24T17:27:16.580Z,4.25
2022-11-24T17:29:53.019Z,3.45
2022-11-24T17:32:41.754Z,2.80
2022-11-24T17:35:24.853Z,2.33
2022-11-24T17:38:22.753Z,1.89
2022-11-24T17:41:16.494Z,1.73
2022-11-24T17:43:59.336Z,1.83
2022-11-24T17:46:54.047Z,1.57
2022-11-24T17:49:31.991Z,1.27
2022-11-24T17:52:22.023Z,1.04
2022-11-24T17:54:57.835Z,0.83
2022-11-24T17:57:46.759Z,0.62
2022-11-24T18:00:23.302Z,0.50
2022-11-24T18:03:12.897Z,0.45
2022-11-24T18:05:54.938Z,0.40
2022-11-24T18:08:47.757Z,0.35
2022-11-24T18:11:39.857Z,0.31
2022-11-24T18:14:36.208Z,0.21
2022-11-24T18:17:28.981Z,0.19
2022-11-24T18:20:18.435Z,0.17
2022-11-24T18:23:09.821Z,0.57
2022-11-24T18:25:45.006Z,2.47
2022-11-24T18:28:34.765Z,2.62
2022-11-24T18:31:13.336Z,2.14
2022-11-24T18:34:00.734Z,1.71
2022-11-24T18:36:35.949Z,1.33
